Terminal Aerodrome Forecast
Issued by NWS Honolulu, HI

Home | Current Version | Previous Version | Text Only | Print | Product List | Glossary On
Versions: 1 2 3 4 5 6 7 8 9 10 11 12 13 14 15 16 17 18 19 20 21 22 23 24 25 26 27 28 29 30
000
FTPA31 PHFO 232109 AAA
TAFHNL
TAF AMD
PHNL 232109Z 2321/2424 06020G28KT P6SM FEW035 SCT060
     FM240500 06012G18KT P6SM FEW030 SCT060
     FM240900 06010KT P6SM FEW030 SCT060
     FM242000 06018G25KT P6SM FEW035 SCT060=

USA.gov is the U.S. government's official web portal to all federal, state and local government web resources and services.